North Baltimore, Ohio
Current Conditions -  °F | °C
As of 11:24 PM on Sunday 25 Jan 2015 (Local Time) from KFDY Reporting Station
Light Snow Light Snow  
Wind Chill:   Ceiling: 3600
Heat Index: 18°   Visibility: 2.5mi
Dew Point: 13°   Wind: 16mph
Humidity: 81%   Direction: 30°NNE
Pressure: 29.87"   Gusts: NA
Location:  41.18°N, 83.68°W
Report Text: KFDY 260424Z AUTO 03014KT 2 1/2SM -SN OVC036 M08/M11 A2987 RMK AO2 P0000 T10781106
Loading
Personal Weather Stations






























Interactive Weather Map New forecast layout! Learn more

10-Day Weather Forecast

Advertisements
Track Severe Weather on mobile